Accueil
METAR-TAF:

METAR-TAF

Aéroports :

Lifou, Nouvelle-Calédonie

Wanaham

latitude: 20-46S, longitude: 167-14E, altitude: 28 m

METAR: absent

Heure: 18:07 (07:07 UTC)

Prévision

Le bulletin a été fait il y a 14 heures et 7 minutes, à 17:00 UTC
Prévision valable du 26 à 18 UTC au 27 à 18 UTC
Vent 3 kt de direction variable
Visibilité 10 km ou plus
Nuages épars à une hauteur de 3500 ft
Evoluant progressivement
du 26 à 22 UTC au 26 à 24 UTC
Vent 10 kt de sud-est
Probabilité 40% :
Temporairement
du 26 à 22 UTC au 27 à 03 UTC
averses de pluie
Evoluant progressivement
du 27 à 06 UTC au 27 à 08 UTC
Vent 2 kt de direction variable

TAF: NWWL 261700Z 2618/2718 VRB03KT 9999 SCT035 BECMG 2622/2624 14010KT PROB40 TEMPO 2622/2703 SHRA BECMG 2706/2708 VRB02KT

Observations et prévisions météorologiques de plus de 4000 aéroports (messages METAR et TAF).

Les stations disponibles sont représentées par des disques jaunes et rouges sur la carte.

Passer la souris dessus pour voir le nom de la station.

Cliquer dessus pour voir les observations et prévisions météorologiques.

Pour changer de carte: cliquez sur les boutons verts avec une croix noire pour zoomer, sur le bouton vert avec un tiret pour effectuer un zoom arrière, ou sur les flèches vertes pour les cartes adjacentes.


METAR-TAF: